sensor_id;sensor_type;location;lat;lon;timestamp;temperature;humidity
4509;DHT22;2267;48.816;9.230;2023-11-21T00:02:21;11.20;99.90
4509;DHT22;2267;48.816;9.230;2023-11-21T00:04:49;11.30;99.90
4509;DHT22;2267;48.816;9.230;2023-11-21T00:07:16;11.20;99.90
4509;DHT22;2267;48.816;9.230;2023-11-21T00:09:43;11.20;99.90
4509;DHT22;2267;48.816;9.230;2023-11-21T00:12:10;11.20;99.90
4509;DHT22;2267;48.816;9.230;2023-11-21T00:14:40;11.20;99.90
4509;DHT22;2267;48.816;9.230;2023-11-21T00:17:07;11.20;99.90
4509;DHT22;2267;48.816;9.230;2023-11-21T00:19:33;11.30;99.90
4509;DHT22;2267;48.816;9.230;2023-11-21T00:22:01;11.30;99.90
4509;DHT22;2267;48.816;9.230;2023-11-21T00:24:28;11.30;99.90
4509;DHT22;2267;48.816;9.230;2023-11-21T00:26:56;11.30;99.90
4509;DHT22;2267;48.816;9.230;2023-11-21T00:29:22;11.30;99.90
4509;DHT22;2267;48.816;9.230;2023-11-21T00:31:49;11.30;99.90
4509;DHT22;2267;48.816;9.230;2023-11-21T00:34:16;11.30;99.90
4509;DHT22;2267;48.816;9.230;2023-11-21T00:36:43;11.30;99.90
4509;DHT22;2267;48.816;9.230;2023-11-21T00:39:10;11.30;99.90
4509;DHT22;2267;48.816;9.230;2023-11-21T00:41:38;11.30;99.90
4509;DHT22;2267;48.816;9.230;2023-11-21T00:44:05;11.30;99.90
4509;DHT22;2267;48.816;9.230;2023-11-21T00:46:33;11.30;99.90
4509;DHT22;2267;48.816;9.230;2023-11-21T00:49:00;11.30;99.90
4509;DHT22;2267;48.816;9.230;2023-11-21T00:51:27;11.30;99.90
4509;DHT22;2267;48.816;9.230;2023-11-21T00:53:54;11.30;99.90
4509;DHT22;2267;48.816;9.230;2023-11-21T00:56:21;11.30;99.90
4509;DHT22;2267;48.816;9.230;2023-11-21T00:58:48;11.30;99.90
4509;DHT22;2267;48.816;9.230;2023-11-21T01:01:19;11.30;99.90
4509;DHT22;2267;48.816;9.230;2023-11-21T01:03:46;11.30;99.90
4509;DHT22;2267;48.816;9.230;2023-11-21T01:06:13;11.30;99.90
4509;DHT22;2267;48.816;9.230;2023-11-21T01:08:43;11.30;99.90
4509;DHT22;2267;48.816;9.230;2023-11-21T01:11:11;11.30;99.90
4509;DHT22;2267;48.816;9.230;2023-11-21T01:13:39;11.40;99.90
4509;DHT22;2267;48.816;9.230;2023-11-21T01:16:07;11.30;99.90
4509;DHT22;2267;48.816;9.230;2023-11-21T01:18:35;11.30;99.90
4509;DHT22;2267;48.816;9.230;2023-11-21T01:21:01;11.30;99.90
4509;DHT22;2267;48.816;9.230;2023-11-21T01:23:28;11.30;99.90
4509;DHT22;2267;48.816;9.230;2023-11-21T01:25:56;11.30;99.90
4509;DHT22;2267;48.816;9.230;2023-11-21T01:28:23;11.30;99.90
4509;DHT22;2267;48.816;9.230;2023-11-21T01:30:50;11.30;99.90
4509;DHT22;2267;48.816;9.230;2023-11-21T01:33:17;11.30;99.90
4509;DHT22;2267;48.816;9.230;2023-11-21T01:35:45;11.20;99.90
4509;DHT22;2267;48.816;9.230;2023-11-21T01:38:13;11.20;99.90
4509;DHT22;2267;48.816;9.230;2023-11-21T01:40:40;11.20;99.90
4509;DHT22;2267;48.816;9.230;2023-11-21T01:43:07;11.20;99.90
4509;DHT22;2267;48.816;9.230;2023-11-21T01:45:35;11.20;99.90
4509;DHT22;2267;48.816;9.230;2023-11-21T01:48:02;11.20;99.90
4509;DHT22;2267;48.816;9.230;2023-11-21T01:50:30;11.10;99.90
4509;DHT22;2267;48.816;9.230;2023-11-21T01:52:58;11.20;99.90
4509;DHT22;2267;48.816;9.230;2023-11-21T01:55:24;11.20;99.90
4509;DHT22;2267;48.816;9.230;2023-11-21T01:57:55;11.20;99.90
4509;DHT22;2267;48.816;9.230;2023-11-21T02:00:23;11.20;99.90
4509;DHT22;2267;48.816;9.230;2023-11-21T02:02:51;11.20;99.90
4509;DHT22;2267;48.816;9.230;2023-11-21T02:05:19;11.20;99.90
4509;DHT22;2267;48.816;9.230;2023-11-21T02:07:46;11.20;99.90
4509;DHT22;2267;48.816;9.230;2023-11-21T02:10:15;11.20;99.90
4509;DHT22;2267;48.816;9.230;2023-11-21T02:12:43;11.20;99.90
4509;DHT22;2267;48.816;9.230;2023-11-21T02:15:13;11.20;99.90
4509;DHT22;2267;48.816;9.230;2023-11-21T02:17:47;11.20;99.90
4509;DHT22;2267;48.816;9.230;2023-11-21T02:20:18;11.20;99.90
4509;DHT22;2267;48.816;9.230;2023-11-21T02:22:50;11.20;99.90
4509;DHT22;2267;48.816;9.230;2023-11-21T02:25:32;11.20;99.90
4509;DHT22;2267;48.816;9.230;2023-11-21T02:28:01;11.20;99.90
4509;DHT22;2267;48.816;9.230;2023-11-21T02:30:28;11.70;99.90
4509;DHT22;2267;48.816;9.230;2023-11-21T02:32:55;11.20;99.90
4509;DHT22;2267;48.816;9.230;2023-11-21T02:35:26;11.20;99.90
4509;DHT22;2267;48.816;9.230;2023-11-21T02:37:53;11.20;99.90
4509;DHT22;2267;48.816;9.230;2023-11-21T02:40:21;11.20;99.90
4509;DHT22;2267;48.816;9.230;2023-11-21T02:42:48;11.20;99.90
4509;DHT22;2267;48.816;9.230;2023-11-21T02:45:15;11.20;99.90
4509;DHT22;2267;48.816;9.230;2023-11-21T02:47:44;11.20;99.90
4509;DHT22;2267;48.816;9.230;2023-11-21T02:50:11;11.20;99.90
4509;DHT22;2267;48.816;9.230;2023-11-21T02:52:39;11.20;99.90
4509;DHT22;2267;48.816;9.230;2023-11-21T02:55:09;11.20;99.90
4509;DHT22;2267;48.816;9.230;2023-11-21T02:57:36;11.20;99.90
4509;DHT22;2267;48.816;9.230;2023-11-21T03:00:03;11.20;99.90
4509;DHT22;2267;48.816;9.230;2023-11-21T03:02:30;11.20;99.90
4509;DHT22;2267;48.816;9.230;2023-11-21T03:04:57;11.20;99.90
4509;DHT22;2267;48.816;9.230;2023-11-21T03:07:24;11.20;99.90
4509;DHT22;2267;48.816;9.230;2023-11-21T03:09:51;11.20;99.90
4509;DHT22;2267;48.816;9.230;2023-11-21T03:12:19;11.20;99.90
4509;DHT22;2267;48.816;9.230;2023-11-21T03:14:46;11.20;99.90
4509;DHT22;2267;48.816;9.230;2023-11-21T03:17:14;11.20;99.90
4509;DHT22;2267;48.816;9.230;2023-11-21T03:19:42;11.20;99.90
4509;DHT22;2267;48.816;9.230;2023-11-21T03:22:08;11.20;99.90
4509;DHT22;2267;48.816;9.230;2023-11-21T03:24:36;11.20;99.90
4509;DHT22;2267;48.816;9.230;2023-11-21T03:27:04;11.20;99.90
4509;DHT22;2267;48.816;9.230;2023-11-21T03:29:31;11.20;99.90
4509;DHT22;2267;48.816;9.230;2023-11-21T03:31:58;11.20;99.90
4509;DHT22;2267;48.816;9.230;2023-11-21T03:34:26;11.20;99.90
4509;DHT22;2267;48.816;9.230;2023-11-21T03:36:54;11.20;99.90
4509;DHT22;2267;48.816;9.230;2023-11-21T03:39:21;11.20;99.90
4509;DHT22;2267;48.816;9.230;2023-11-21T03:41:49;11.20;99.90
4509;DHT22;2267;48.816;9.230;2023-11-21T03:44:16;11.20;99.90
4509;DHT22;2267;48.816;9.230;2023-11-21T03:46:44;11.20;99.90
4509;DHT22;2267;48.816;9.230;2023-11-21T03:49:11;11.20;99.90
4509;DHT22;2267;48.816;9.230;2023-11-21T03:51:38;11.20;99.90
4509;DHT22;2267;48.816;9.230;2023-11-21T03:54:05;11.20;99.90
4509;DHT22;2267;48.816;9.230;2023-11-21T03:56:31;11.20;99.90
4509;DHT22;2267;48.816;9.230;2023-11-21T03:58:58;11.20;99.90
4509;DHT22;2267;48.816;9.230;2023-11-21T04:01:25;11.20;99.90
4509;DHT22;2267;48.816;9.230;2023-11-21T04:03:52;11.20;99.90
4509;DHT22;2267;48.816;9.230;2023-11-21T04:06:19;11.20;99.90
4509;DHT22;2267;48.816;9.230;2023-11-21T04:08:46;11.20;99.90
4509;DHT22;2267;48.816;9.230;2023-11-21T04:11:13;11.20;99.90
4509;DHT22;2267;48.816;9.230;2023-11-21T04:13:40;11.20;99.90
4509;DHT22;2267;48.816;9.230;2023-11-21T04:16:08;11.20;99.90
4509;DHT22;2267;48.816;9.230;2023-11-21T04:18:36;11.20;99.90
4509;DHT22;2267;48.816;9.230;2023-11-21T04:21:07;11.20;99.90
4509;DHT22;2267;48.816;9.230;2023-11-21T04:23:35;11.10;99.90
4509;DHT22;2267;48.816;9.230;2023-11-21T04:26:02;11.20;99.90
4509;DHT22;2267;48.816;9.230;2023-11-21T04:28:29;11.20;99.90
4509;DHT22;2267;48.816;9.230;2023-11-21T04:30:56;11.20;99.90
4509;DHT22;2267;48.816;9.230;2023-11-21T04:33:24;11.20;99.90
4509;DHT22;2267;48.816;9.230;2023-11-21T04:35:52;11.20;99.90
4509;DHT22;2267;48.816;9.230;2023-11-21T04:38:18;11.20;99.90
4509;DHT22;2267;48.816;9.230;2023-11-21T04:40:45;11.20;99.90
4509;DHT22;2267;48.816;9.230;2023-11-21T04:43:12;11.20;99.90
4509;DHT22;2267;48.816;9.230;2023-11-21T04:45:39;11.20;99.90
4509;DHT22;2267;48.816;9.230;2023-11-21T04:48:08;11.10;99.90
4509;DHT22;2267;48.816;9.230;2023-11-21T04:50:35;11.10;99.90
4509;DHT22;2267;48.816;9.230;2023-11-21T04:53:02;11.10;99.90
4509;DHT22;2267;48.816;9.230;2023-11-21T04:55:29;11.10;99.90
4509;DHT22;2267;48.816;9.230;2023-11-21T04:57:56;11.10;99.90
4509;DHT22;2267;48.816;9.230;2023-11-21T05:00:22;11.10;99.90
4509;DHT22;2267;48.816;9.230;2023-11-21T05:02:50;11.00;99.90
4509;DHT22;2267;48.816;9.230;2023-11-21T05:05:17;11.00;99.90
4509;DHT22;2267;48.816;9.230;2023-11-21T05:07:44;11.00;99.90
4509;DHT22;2267;48.816;9.230;2023-11-21T05:10:11;11.00;99.90
4509;DHT22;2267;48.816;9.230;2023-11-21T05:12:40;11.10;99.90
4509;DHT22;2267;48.816;9.230;2023-11-21T05:15:08;11.00;99.90
4509;DHT22;2267;48.816;9.230;2023-11-21T05:17:38;11.00;99.90
4509;DHT22;2267;48.816;9.230;2023-11-21T05:20:10;11.10;99.90
4509;DHT22;2267;48.816;9.230;2023-11-21T05:22:38;11.10;99.90
4509;DHT22;2267;48.816;9.230;2023-11-21T05:25:05;11.10;99.90
4509;DHT22;2267;48.816;9.230;2023-11-21T05:27:34;11.10;99.90
4509;DHT22;2267;48.816;9.230;2023-11-21T05:30:02;11.10;99.90
4509;DHT22;2267;48.816;9.230;2023-11-21T05:32:32;11.10;99.90
4509;DHT22;2267;48.816;9.230;2023-11-21T05:34:59;11.10;99.90
4509;DHT22;2267;48.816;9.230;2023-11-21T05:37:26;11.10;99.90
4509;DHT22;2267;48.816;9.230;2023-11-21T05:39:53;11.00;99.90
4509;DHT22;2267;48.816;9.230;2023-11-21T05:42:23;11.00;99.90
4509;DHT22;2267;48.816;9.230;2023-11-21T05:44:50;11.00;99.90
4509;DHT22;2267;48.816;9.230;2023-11-21T05:47:17;11.00;99.90
4509;DHT22;2267;48.816;9.230;2023-11-21T05:49:45;11.00;99.90
4509;DHT22;2267;48.816;9.230;2023-11-21T05:52:17;11.00;99.90
4509;DHT22;2267;48.816;9.230;2023-11-21T05:54:44;11.00;99.90
4509;DHT22;2267;48.816;9.230;2023-11-21T05:57:11;11.00;99.90
4509;DHT22;2267;48.816;9.230;2023-11-21T05:59:38;11.00;99.90
4509;DHT22;2267;48.816;9.230;2023-11-21T06:02:05;11.00;99.90
4509;DHT22;2267;48.816;9.230;2023-11-21T06:04:31;11.00;99.90
4509;DHT22;2267;48.816;9.230;2023-11-21T06:06:58;11.00;99.90
4509;DHT22;2267;48.816;9.230;2023-11-21T06:09:27;11.00;99.90
4509;DHT22;2267;48.816;9.230;2023-11-21T06:11:54;11.00;99.90
4509;DHT22;2267;48.816;9.230;2023-11-21T06:14:21;11.10;99.90
4509;DHT22;2267;48.816;9.230;2023-11-21T06:16:48;11.00;99.90
4509;DHT22;2267;48.816;9.230;2023-11-21T06:19:17;11.00;99.90
4509;DHT22;2267;48.816;9.230;2023-11-21T06:21:47;11.00;99.90
4509;DHT22;2267;48.816;9.230;2023-11-21T06:24:14;11.00;99.90
4509;DHT22;2267;48.816;9.230;2023-11-21T06:26:42;11.00;99.90
4509;DHT22;2267;48.816;9.230;2023-11-21T06:29:09;11.00;99.90
4509;DHT22;2267;48.816;9.230;2023-11-21T06:31:35;11.00;99.90
4509;DHT22;2267;48.816;9.230;2023-11-21T06:34:02;11.00;99.90
4509;DHT22;2267;48.816;9.230;2023-11-21T06:36:30;11.00;99.90
4509;DHT22;2267;48.816;9.230;2023-11-21T06:38:57;11.00;99.90
4509;DHT22;2267;48.816;9.230;2023-11-21T06:41:24;11.00;99.90
4509;DHT22;2267;48.816;9.230;2023-11-21T06:43:50;11.00;99.90
4509;DHT22;2267;48.816;9.230;2023-11-21T06:46:18;11.00;99.90
4509;DHT22;2267;48.816;9.230;2023-11-21T06:48:46;11.00;99.90
4509;DHT22;2267;48.816;9.230;2023-11-21T06:51:15;11.00;99.90
4509;DHT22;2267;48.816;9.230;2023-11-21T06:53:42;11.00;99.90
4509;DHT22;2267;48.816;9.230;2023-11-21T06:56:18;11.00;99.90
4509;DHT22;2267;48.816;9.230;2023-11-21T06:58:45;11.00;99.90
4509;DHT22;2267;48.816;9.230;2023-11-21T07:01:13;11.10;99.90
4509;DHT22;2267;48.816;9.230;2023-11-21T07:03:41;11.00;99.90
4509;DHT22;2267;48.816;9.230;2023-11-21T07:06:08;11.00;99.90
4509;DHT22;2267;48.816;9.230;2023-11-21T07:08:35;11.00;99.90
4509;DHT22;2267;48.816;9.230;2023-11-21T07:11:03;11.00;99.90
4509;DHT22;2267;48.816;9.230;2023-11-21T07:13:30;11.10;99.90
4509;DHT22;2267;48.816;9.230;2023-11-21T07:16:00;11.00;99.90
4509;DHT22;2267;48.816;9.230;2023-11-21T07:18:27;11.10;99.90
4509;DHT22;2267;48.816;9.230;2023-11-21T07:20:54;11.10;99.90
4509;DHT22;2267;48.816;9.230;2023-11-21T07:23:20;11.10;99.90
4509;DHT22;2267;48.816;9.230;2023-11-21T07:25:49;11.00;99.90
4509;DHT22;2267;48.816;9.230;2023-11-21T07:28:16;11.10;99.90
4509;DHT22;2267;48.816;9.230;2023-11-21T07:30:43;11.00;99.90
4509;DHT22;2267;48.816;9.230;2023-11-21T07:33:10;11.00;99.90
4509;DHT22;2267;48.816;9.230;2023-11-21T07:35:37;11.10;99.90
4509;DHT22;2267;48.816;9.230;2023-11-21T07:38:04;11.00;99.90
4509;DHT22;2267;48.816;9.230;2023-11-21T07:40:31;11.00;99.90
4509;DHT22;2267;48.816;9.230;2023-11-21T07:42:58;11.00;99.90
4509;DHT22;2267;48.816;9.230;2023-11-21T07:45:26;11.10;99.90
4509;DHT22;2267;48.816;9.230;2023-11-21T07:47:54;11.00;99.90
4509;DHT22;2267;48.816;9.230;2023-11-21T07:50:22;11.00;99.90
4509;DHT22;2267;48.816;9.230;2023-11-21T07:52:49;11.10;99.90
4509;DHT22;2267;48.816;9.230;2023-11-21T07:55:16;11.10;99.90
4509;DHT22;2267;48.816;9.230;2023-11-21T07:57:43;11.10;99.90
4509;DHT22;2267;48.816;9.230;2023-11-21T08:00:10;11.10;99.90
4509;DHT22;2267;48.816;9.230;2023-11-21T08:02:39;11.10;99.90
4509;DHT22;2267;48.816;9.230;2023-11-21T08:05:09;11.10;99.90
4509;DHT22;2267;48.816;9.230;2023-11-21T08:07:50;11.10;99.90
4509;DHT22;2267;48.816;9.230;2023-11-21T08:10:17;11.10;99.90
4509;DHT22;2267;48.816;9.230;2023-11-21T08:12:44;11.10;99.90
4509;DHT22;2267;48.816;9.230;2023-11-21T08:15:11;11.10;99.90
4509;DHT22;2267;48.816;9.230;2023-11-21T08:17:38;11.10;99.90
4509;DHT22;2267;48.816;9.230;2023-11-21T08:20:06;11.10;99.90
4509;DHT22;2267;48.816;9.230;2023-11-21T08:22:35;11.20;99.90
4509;DHT22;2267;48.816;9.230;2023-11-21T08:25:02;11.10;99.90
4509;DHT22;2267;48.816;9.230;2023-11-21T08:27:31;11.20;99.90
4509;DHT22;2267;48.816;9.230;2023-11-21T08:29:58;11.20;99.90
4509;DHT22;2267;48.816;9.230;2023-11-21T08:32:25;11.10;99.90
4509;DHT22;2267;48.816;9.230;2023-11-21T08:34:52;11.20;99.90
4509;DHT22;2267;48.816;9.230;2023-11-21T08:37:19;11.20;99.90
4509;DHT22;2267;48.816;9.230;2023-11-21T08:39:47;12.30;99.90
4509;DHT22;2267;48.816;9.230;2023-11-21T08:42:15;11.20;99.90
4509;DHT22;2267;48.816;9.230;2023-11-21T08:44:42;11.20;99.90
4509;DHT22;2267;48.816;9.230;2023-11-21T08:47:11;11.30;99.90
4509;DHT22;2267;48.816;9.230;2023-11-21T08:49:38;11.30;99.90
4509;DHT22;2267;48.816;9.230;2023-11-21T08:52:05;11.30;99.90
4509;DHT22;2267;48.816;9.230;2023-11-21T08:54:33;11.30;99.90
4509;DHT22;2267;48.816;9.230;2023-11-21T08:57:01;11.30;99.90
4509;DHT22;2267;48.816;9.230;2023-11-21T08:59:27;11.40;99.90
4509;DHT22;2267;48.816;9.230;2023-11-21T09:01:54;11.40;99.90
4509;DHT22;2267;48.816;9.230;2023-11-21T09:04:21;11.40;99.90
4509;DHT22;2267;48.816;9.230;2023-11-21T09:06:48;11.50;99.90
4509;DHT22;2267;48.816;9.230;2023-11-21T09:09:15;11.50;99.90
4509;DHT22;2267;48.816;9.230;2023-11-21T09:11:42;11.50;99.90
4509;DHT22;2267;48.816;9.230;2023-11-21T09:14:11;11.50;99.90
4509;DHT22;2267;48.816;9.230;2023-11-21T09:16:39;11.50;99.90
4509;DHT22;2267;48.816;9.230;2023-11-21T09:19:06;11.50;99.90
4509;DHT22;2267;48.816;9.230;2023-11-21T09:21:33;11.60;99.90
4509;DHT22;2267;48.816;9.230;2023-11-21T09:24:01;11.60;99.90
4509;DHT22;2267;48.816;9.230;2023-11-21T09:26:28;11.70;99.90
4509;DHT22;2267;48.816;9.230;2023-11-21T09:28:56;11.70;99.90
4509;DHT22;2267;48.816;9.230;2023-11-21T09:31:23;11.80;99.90
4509;DHT22;2267;48.816;9.230;2023-11-21T09:33:51;11.80;99.90
4509;DHT22;2267;48.816;9.230;2023-11-21T09:36:17;11.90;99.90
4509;DHT22;2267;48.816;9.230;2023-11-21T09:38:44;11.90;99.90
4509;DHT22;2267;48.816;9.230;2023-11-21T09:41:26;12.00;99.90
4509;DHT22;2267;48.816;9.230;2023-11-21T09:43:57;11.90;99.90
4509;DHT22;2267;48.816;9.230;2023-11-21T09:46:28;12.00;99.90
4509;DHT22;2267;48.816;9.230;2023-11-21T09:49:00;11.90;99.90
4509;DHT22;2267;48.816;9.230;2023-11-21T09:51:29;12.00;99.90
4509;DHT22;2267;48.816;9.230;2023-11-21T09:53:57;12.00;99.90
4509;DHT22;2267;48.816;9.230;2023-11-21T09:56:26;12.00;99.90
4509;DHT22;2267;48.816;9.230;2023-11-21T09:58:53;11.90;99.90
4509;DHT22;2267;48.816;9.230;2023-11-21T10:01:21;11.90;99.90
4509;DHT22;2267;48.816;9.230;2023-11-21T10:03:49;11.90;99.90
4509;DHT22;2267;48.816;9.230;2023-11-21T10:06:17;11.90;99.90
4509;DHT22;2267;48.816;9.230;2023-11-21T10:08:45;12.00;99.90
4509;DHT22;2267;48.816;9.230;2023-11-21T10:11:23;12.00;99.90
4509;DHT22;2267;48.816;9.230;2023-11-21T10:13:53;12.00;99.90
4509;DHT22;2267;48.816;9.230;2023-11-21T10:16:22;12.00;99.90
4509;DHT22;2267;48.816;9.230;2023-11-21T10:18:53;12.00;99.90
4509;DHT22;2267;48.816;9.230;2023-11-21T10:21:38;12.00;99.90
4509;DHT22;2267;48.816;9.230;2023-11-21T10:24:05;11.90;99.90
4509;DHT22;2267;48.816;9.230;2023-11-21T10:26:33;11.90;99.90
4509;DHT22;2267;48.816;9.230;2023-11-21T10:29:16;11.90;99.90
4509;DHT22;2267;48.816;9.230;2023-11-21T10:31:43;11.80;99.90
4509;DHT22;2267;48.816;9.230;2023-11-21T10:34:16;11.80;99.90
4509;DHT22;2267;48.816;9.230;2023-11-21T10:36:43;11.80;99.90
4509;DHT22;2267;48.816;9.230;2023-11-21T10:39:16;11.80;99.90
4509;DHT22;2267;48.816;9.230;2023-11-21T10:41:48;11.80;99.90
4509;DHT22;2267;48.816;9.230;2023-11-21T10:44:16;11.80;99.90
4509;DHT22;2267;48.816;9.230;2023-11-21T10:46:54;11.80;99.90
4509;DHT22;2267;48.816;9.230;2023-11-21T10:49:27;11.80;99.90
4509;DHT22;2267;48.816;9.230;2023-11-21T10:51:55;11.80;99.90
4509;DHT22;2267;48.816;9.230;2023-11-21T10:54:25;11.80;99.90
4509;DHT22;2267;48.816;9.230;2023-11-21T10:57:02;11.70;99.90
4509;DHT22;2267;48.816;9.230;2023-11-21T10:59:31;11.80;99.90
4509;DHT22;2267;48.816;9.230;2023-11-21T11:02:01;11.70;99.90
4509;DHT22;2267;48.816;9.230;2023-11-21T11:04:30;11.70;99.90
4509;DHT22;2267;48.816;9.230;2023-11-21T11:07:01;11.80;99.90
4509;DHT22;2267;48.816;9.230;2023-11-21T11:09:32;11.80;99.90
4509;DHT22;2267;48.816;9.230;2023-11-21T11:12:02;11.80;99.90
4509;DHT22;2267;48.816;9.230;2023-11-21T11:14:29;11.80;99.90
4509;DHT22;2267;48.816;9.230;2023-11-21T11:16:56;11.80;99.90
4509;DHT22;2267;48.816;9.230;2023-11-21T11:25:53;11.90;99.90
4509;DHT22;2267;48.816;9.230;2023-11-21T11:28:51;11.90;99.90
4509;DHT22;2267;48.816;9.230;2023-11-21T11:31:27;11.90;99.90
4509;DHT22;2267;48.816;9.230;2023-11-21T11:37:06;11.90;99.90
4509;DHT22;2267;48.816;9.230;2023-11-21T11:39:37;11.90;99.90
4509;DHT22;2267;48.816;9.230;2023-11-21T11:42:16;12.00;99.90
4509;DHT22;2267;48.816;9.230;2023-11-21T11:50:08;12.10;99.90
4509;DHT22;2267;48.816;9.230;2023-11-21T11:52:48;12.10;99.90
4509;DHT22;2267;48.816;9.230;2023-11-21T11:55:19;12.10;99.90
4509;DHT22;2267;48.816;9.230;2023-11-21T11:57:51;12.10;99.90
4509;DHT22;2267;48.816;9.230;2023-11-21T12:03:00;12.20;99.90
4509;DHT22;2267;48.816;9.230;2023-11-21T12:05:32;12.20;99.90
4509;DHT22;2267;48.816;9.230;2023-11-21T12:08:02;12.20;99.90
4509;DHT22;2267;48.816;9.230;2023-11-21T12:10:31;12.20;99.90
4509;DHT22;2267;48.816;9.230;2023-11-21T12:13:11;12.20;99.90
4509;DHT22;2267;48.816;9.230;2023-11-21T12:15:41;12.10;99.90
4509;DHT22;2267;48.816;9.230;2023-11-21T12:18:09;12.10;99.90
4509;DHT22;2267;48.816;9.230;2023-11-21T12:20:36;12.10;99.90
4509;DHT22;2267;48.816;9.230;2023-11-21T12:23:06;12.10;99.90
4509;DHT22;2267;48.816;9.230;2023-11-21T12:25:35;12.10;99.90
4509;DHT22;2267;48.816;9.230;2023-11-21T12:28:03;12.10;99.90
4509;DHT22;2267;48.816;9.230;2023-11-21T12:30:33;12.10;99.90
4509;DHT22;2267;48.816;9.230;2023-11-21T12:33:02;12.10;99.90
4509;DHT22;2267;48.816;9.230;2023-11-21T12:35:32;12.10;99.90
4509;DHT22;2267;48.816;9.230;2023-11-21T12:38:03;12.10;99.90
4509;DHT22;2267;48.816;9.230;2023-11-21T12:40:31;12.20;99.90
4509;DHT22;2267;48.816;9.230;2023-11-21T12:42:59;12.20;99.90
4509;DHT22;2267;48.816;9.230;2023-11-21T12:45:28;12.20;99.90
4509;DHT22;2267;48.816;9.230;2023-11-21T12:50:24;12.20;99.90
4509;DHT22;2267;48.816;9.230;2023-11-21T12:53:00;12.20;99.90
4509;DHT22;2267;48.816;9.230;2023-11-21T12:55:45;12.30;99.90
4509;DHT22;2267;48.816;9.230;2023-11-21T12:58:20;12.30;99.90
4509;DHT22;2267;48.816;9.230;2023-11-21T13:00:49;12.40;99.90
4509;DHT22;2267;48.816;9.230;2023-11-21T13:06:39;12.60;99.90
4509;DHT22;2267;48.816;9.230;2023-11-21T13:09:09;12.60;99.90
4509;DHT22;2267;48.816;9.230;2023-11-21T13:11:44;12.70;99.90
4509;DHT22;2267;48.816;9.230;2023-11-21T13:17:35;12.60;99.90
4509;DHT22;2267;48.816;9.230;2023-11-21T13:20:02;12.60;99.90
4509;DHT22;2267;48.816;9.230;2023-11-21T13:22:32;12.50;99.90
4509;DHT22;2267;48.816;9.230;2023-11-21T13:24:59;12.50;99.90
4509;DHT22;2267;48.816;9.230;2023-11-21T13:27:26;12.50;99.90
4509;DHT22;2267;48.816;9.230;2023-11-21T13:29:53;12.40;99.90
4509;DHT22;2267;48.816;9.230;2023-11-21T13:35:46;12.30;99.90
4509;DHT22;2267;48.816;9.230;2023-11-21T13:38:18;12.30;99.90
4509;DHT22;2267;48.816;9.230;2023-11-21T13:40:51;12.20;99.90
4509;DHT22;2267;48.816;9.230;2023-11-21T13:43:24;12.20;99.90
4509;DHT22;2267;48.816;9.230;2023-11-21T13:45:53;12.10;99.90
4509;DHT22;2267;48.816;9.230;2023-11-21T13:48:42;12.10;99.90
4509;DHT22;2267;48.816;9.230;2023-11-21T13:51:14;12.10;99.90
4509;DHT22;2267;48.816;9.230;2023-11-21T13:53:44;12.10;99.90
4509;DHT22;2267;48.816;9.230;2023-11-21T13:56:15;12.10;99.90
4509;DHT22;2267;48.816;9.230;2023-11-21T13:58:46;12.00;99.90
4509;DHT22;2267;48.816;9.230;2023-11-21T14:01:20;12.00;99.90
4509;DHT22;2267;48.816;9.230;2023-11-21T14:04:00;12.00;99.90
4509;DHT22;2267;48.816;9.230;2023-11-21T14:06:47;12.00;99.90
4509;DHT22;2267;48.816;9.230;2023-11-21T14:09:21;12.00;99.90
4509;DHT22;2267;48.816;9.230;2023-11-21T14:11:55;12.00;99.90
4509;DHT22;2267;48.816;9.230;2023-11-21T14:14:26;11.90;99.90
4509;DHT22;2267;48.816;9.230;2023-11-21T14:16:54;11.90;99.90
4509;DHT22;2267;48.816;9.230;2023-11-21T14:19:25;11.90;99.90
4509;DHT22;2267;48.816;9.230;2023-11-21T14:21:58;11.90;99.90
4509;DHT22;2267;48.816;9.230;2023-11-21T14:24:25;11.90;99.90
4509;DHT22;2267;48.816;9.230;2023-11-21T14:26:52;11.90;99.90
4509;DHT22;2267;48.816;9.230;2023-11-21T14:29:19;11.90;99.90
4509;DHT22;2267;48.816;9.230;2023-11-21T14:31:47;11.90;99.90
4509;DHT22;2267;48.816;9.230;2023-11-21T14:34:15;11.90;99.90
4509;DHT22;2267;48.816;9.230;2023-11-21T14:36:46;11.90;99.90
4509;DHT22;2267;48.816;9.230;2023-11-21T14:39:13;11.90;99.90
4509;DHT22;2267;48.816;9.230;2023-11-21T14:42:03;11.90;99.90
4509;DHT22;2267;48.816;9.230;2023-11-21T14:44:31;11.90;99.90
4509;DHT22;2267;48.816;9.230;2023-11-21T14:47:02;11.90;99.90
4509;DHT22;2267;48.816;9.230;2023-11-21T14:49:34;11.90;99.90
4509;DHT22;2267;48.816;9.230;2023-11-21T14:55:40;11.90;99.90
4509;DHT22;2267;48.816;9.230;2023-11-21T14:58:10;11.90;99.90
4509;DHT22;2267;48.816;9.230;2023-11-21T15:00:42;11.90;99.90
4509;DHT22;2267;48.816;9.230;2023-11-21T15:03:12;11.90;99.90
4509;DHT22;2267;48.816;9.230;2023-11-21T15:06:03;11.90;99.90
4509;DHT22;2267;48.816;9.230;2023-11-21T15:08:53;11.90;99.90
4509;DHT22;2267;48.816;9.230;2023-11-21T15:11:36;11.90;99.90
4509;DHT22;2267;48.816;9.230;2023-11-21T15:14:05;11.90;99.90
4509;DHT22;2267;48.816;9.230;2023-11-21T15:16:37;11.90;99.90
4509;DHT22;2267;48.816;9.230;2023-11-21T15:19:07;11.80;99.90
4509;DHT22;2267;48.816;9.230;2023-11-21T15:21:36;11.90;99.90
4509;DHT22;2267;48.816;9.230;2023-11-21T15:24:03;11.80;99.90
4509;DHT22;2267;48.816;9.230;2023-11-21T15:26:30;11.80;99.90
4509;DHT22;2267;48.816;9.230;2023-11-21T15:32:20;11.80;99.90
4509;DHT22;2267;48.816;9.230;2023-11-21T15:34:48;11.80;99.90
4509;DHT22;2267;48.816;9.230;2023-11-21T15:37:15;11.80;99.90
4509;DHT22;2267;48.816;9.230;2023-11-21T15:39:42;11.80;99.90
4509;DHT22;2267;48.816;9.230;2023-11-21T15:42:09;11.80;99.90
4509;DHT22;2267;48.816;9.230;2023-11-21T15:44:36;11.80;99.90
4509;DHT22;2267;48.816;9.230;2023-11-21T15:47:04;11.70;99.90
4509;DHT22;2267;48.816;9.230;2023-11-21T15:49:31;11.80;99.90
4509;DHT22;2267;48.816;9.230;2023-11-21T15:52:04;11.70;99.90
4509;DHT22;2267;48.816;9.230;2023-11-21T15:54:33;11.70;99.90
4509;DHT22;2267;48.816;9.230;2023-11-21T15:57:01;11.70;99.90
4509;DHT22;2267;48.816;9.230;2023-11-21T15:59:31;11.70;99.90
4509;DHT22;2267;48.816;9.230;2023-11-21T16:02:00;11.70;99.90
4509;DHT22;2267;48.816;9.230;2023-11-21T16:04:27;11.70;99.90
4509;DHT22;2267;48.816;9.230;2023-11-21T16:06:55;11.70;99.90
4509;DHT22;2267;48.816;9.230;2023-11-21T16:09:22;11.70;99.90
4509;DHT22;2267;48.816;9.230;2023-11-21T16:11:50;11.60;99.90
4509;DHT22;2267;48.816;9.230;2023-11-21T16:14:25;11.60;99.90
4509;DHT22;2267;48.816;9.230;2023-11-21T16:16:54;11.60;99.90
4509;DHT22;2267;48.816;9.230;2023-11-21T16:19:21;11.60;99.90
4509;DHT22;2267;48.816;9.230;2023-11-21T16:21:48;11.60;99.90
4509;DHT22;2267;48.816;9.230;2023-11-21T16:24:15;11.60;99.90
4509;DHT22;2267;48.816;9.230;2023-11-21T16:29:47;11.50;99.90
4509;DHT22;2267;48.816;9.230;2023-11-21T16:32:14;11.50;99.90
4509;DHT22;2267;48.816;9.230;2023-11-21T16:34:43;11.50;99.90
4509;DHT22;2267;48.816;9.230;2023-11-21T16:37:11;11.50;99.90
4509;DHT22;2267;48.816;9.230;2023-11-21T16:39:39;11.50;99.90
4509;DHT22;2267;48.816;9.230;2023-11-21T16:42:08;11.50;99.90
4509;DHT22;2267;48.816;9.230;2023-11-21T16:44:35;11.50;99.90
4509;DHT22;2267;48.816;9.230;2023-11-21T16:47:02;11.50;99.90
4509;DHT22;2267;48.816;9.230;2023-11-21T16:49:32;11.50;99.90
4509;DHT22;2267;48.816;9.230;2023-11-21T16:52:00;11.50;99.90
4509;DHT22;2267;48.816;9.230;2023-11-21T16:54:29;11.50;99.90